Huvudsida
METAR-TAF:

METAR-TAF

Flygplatser :

Salzburgs flygplats

Salzburg, Österrike

latitud: 47-48N, longitud: 013-00E, höjd: 430 m

Aktuellt väderrapport

Denna rapport gjordes för 36 minuter sedan, klockan 17:50 UTC
Vind 7 kt från syd/sydost
Temperatur 2°C
Fuktighet 60%
Tryck 1020 hPa
Sikt 10 km eller mer
Inga moln under 1 500 m eller inga cumulonimbus

METAR: LOWS 281750Z 16007KT CAVOK 02/M05 Q1020 NOSIG

Tid: 19:26 (18:26 UTC)

Väderprognos

Denna rapport gjordes för 1 timme och 11 minuter sedan, klockan 17:15 UTC
Prognos gäller från 28 kl. 18 UTC till 29 kl. 18 UTC
Vind 6 kt från syd/sydost
Sikt 10 km eller mer
Få moln på en höjd av 6000 ft
Blir
från 28 kl. 19 UTC till 28 kl. 21 UTC
Få moln på en höjd av 6000 ft
Brutna moln på en höjd av 10000 ft
Temporärt
från 29 kl. 09 UTC till 29 kl. 16 UTC
Vind 5 kt från nord/nordväst
Spridda moln på en höjd av 10000 ft

TAF: LOWS 281715Z 2818/2918 15006KT 9999 FEW060 TX13/2915Z TNM01/2821Z BECMG 2819/2821 FEW060 BKN100 TEMPO 2909/2916 34005KT SCT100

Aktuella väderrapporter och prognoser från 4000 flygplatser (METAR- och TAF-rapporter).

De tillgängliga stationerna syns som gula och röda prickar på kartan.

För musen över prickarna för att se namnen på stationerna.

Klicka sedan för att få väderrapporter och prognoser.

För att ändra kartan: Klicka på de gröna knapparna med ett svart kors på för att zooma in; den gröna knappen med ett streck på för att zooma ut; eller på de gröna pilarna för angränsande kartor.


METAR-TAF: